Time;durP1;ratioP1;P1;durP2;ratioP2;P2;SDS_P1;SDS_P2;PMS_P1;PMS_P2;Temp;Humidity;BMP_temperature;BMP_pressure;BME280_temperature;BME280_humidity;BME280_pressure;Samples;Min_cycle;Max_cycle;Signal;HPM_P1;HPM_P2
2022/03/06 00:00:49;;;;;;;14.93;7.78;;;;;;;3.49;42.41;100869.59;4987628;28;20072;-70
2022/03/06 00:03:16;;;;;;;14.27;6.00;;;;;;;3.52;41.89;100866.06;4989398;28;20121;-79
2022/03/06 00:05:43;;;;;;;11.57;6.00;;;;;;;3.58;41.43;100871.94;4988983;28;20138;-73
2022/03/06 00:08:10;;;;;;;52.17;31.80;;;;;;;3.57;41.47;100870.22;4987462;28;20050;-69
2022/03/06 00:10:37;;;;;;;94.50;46.50;;;;;;;3.46;41.78;100864.50;4989742;28;20046;-71
2022/03/06 00:13:04;;;;;;;71.75;40.10;;;;;;;3.35;41.86;100869.22;4994638;28;20050;-69
2022/03/06 00:15:36;;;;;;;62.78;33.65;;;;;;;3.31;41.72;100872.84;4990793;28;20110;-70
2022/03/06 00:18:04;;;;;;;61.28;35.10;;;;;;;3.31;41.87;100878.06;4985884;28;20050;-68
2022/03/06 00:20:31;;;;;;;46.00;23.13;;;;;;;3.36;41.74;100876.16;4988972;28;20052;-77
2022/03/06 00:22:58;;;;;;;50.40;25.08;;;;;;;3.42;41.38;100876.81;4988235;28;20050;-70
2022/03/06 00:25:25;;;;;;;44.92;26.52;;;;;;;3.39;41.09;100876.91;4989390;28;20305;-78
2022/03/06 00:27:52;;;;;;;46.78;24.80;;;;;;;3.36;40.83;100876.16;4986770;28;20583;-69
2022/03/06 00:30:19;;;;;;;45.25;22.75;;;;;;;3.34;40.73;100877.97;4987764;28;20054;-74
2022/03/06 00:32:47;;;;;;;58.80;30.25;;;;;;;3.31;40.66;100878.06;4987647;28;20042;-74
2022/03/06 00:35:14;;;;;;;84.50;42.55;;;;;;;3.25;40.41;100879.97;4988588;28;20068;-70
2022/03/06 00:37:42;;;;;;;76.63;38.85;;;;;;;3.26;40.57;100880.84;4987824;28;20584;-70
2022/03/06 00:40:10;;;;;;;61.35;32.92;;;;;;;3.30;40.47;100872.00;4987113;28;20043;-69
2022/03/06 00:42:38;;;;;;;65.55;32.45;;;;;;;3.32;40.35;100874.56;4987521;28;20057;-68
2022/03/06 00:45:06;;;;;;;46.75;26.77;;;;;;;3.31;40.34;100883.28;4986936;28;20062;-69
2022/03/06 00:47:33;;;;;;;49.53;27.15;;;;;;;3.27;40.27;100881.69;4986678;28;20054;-69
2022/03/06 00:50:02;;;;;;;43.50;22.00;;;;;;;3.21;40.42;100874.91;4985420;28;20050;-69
2022/03/06 00:52:31;;;;;;;48.15;27.73;;;;;;;3.16;40.25;100872.41;4987418;28;20614;-68
2022/03/06 00:54:58;;;;;;;42.30;25.38;;;;;;;3.11;40.01;100865.66;4986275;28;20056;-70
2022/03/06 00:57:25;;;;;;;32.92;18.10;;;;;;;3.11;39.95;100868.25;5012695;28;20053;-71
2022/03/06 00:59:52;;;;;;;33.70;19.05;;;;;;;3.15;39.61;100868.13;5027025;28;20149;-69
2022/03/06 01:02:19;;;;;;;31.42;16.98;;;;;;;3.14;39.37;100868.16;5026294;28;20046;-68
2022/03/06 01:04:46;;;;;;;16.30;10.48;;;;;;;3.21;39.23;100867.06;5027296;28;20056;-71
2022/03/06 01:07:14;;;;;;;24.63;17.00;;;;;;;3.22;38.63;100860.94;5028662;28;20049;-71
2022/03/06 01:09:41;;;;;;;45.58;23.33;;;;;;;3.21;38.73;100856.63;5025899;28;20113;-69
2022/03/06 01:12:09;;;;;;;39.85;22.60;;;;;;;3.18;39.02;100852.34;5025486;28;20125;-68
2022/03/06 01:14:36;;;;;;;57.35;31.35;;;;;;;3.18;38.70;100857.56;5025714;28;20050;-69
2022/03/06 01:17:03;;;;;;;32.83;17.10;;;;;;;3.25;39.03;100859.06;5025402;28;20505;-69
2022/03/06 01:19:30;;;;;;;31.25;17.13;;;;;;;3.34;39.12;100849.25;5023436;28;20056;-70
2022/03/06 01:21:57;;;;;;;36.63;17.48;;;;;;;3.43;39.27;100848.94;5025873;28;20049;-69
2022/03/06 01:24:26;;;;;;;27.05;16.92;;;;;;;3.50;39.37;100842.59;5025697;28;20072;-71
2022/03/06 01:26:53;;;;;;;31.38;15.88;;;;;;;3.56;39.34;100847.59;5025328;28;20053;-69
2022/03/06 01:29:22;;;;;;;32.05;17.80;;;;;;;3.62;39.40;100847.41;5025228;28;20072;-74
2022/03/06 01:31:49;;;;;;;30.60;15.50;;;;;;;3.64;39.39;100844.75;5025409;28;20425;-69
2022/03/06 01:34:16;;;;;;;30.33;18.25;;;;;;;3.61;39.78;100845.69;5025349;28;20042;-69
2022/03/06 01:36:43;;;;;;;29.60;18.02;;;;;;;3.56;39.94;100847.59;5024940;28;20051;-70
2022/03/06 01:39:10;;;;;;;35.97;19.50;;;;;;;3.59;39.95;100850.13;5024809;28;20037;-69
2022/03/06 01:41:39;;;;;;;33.10;16.85;;;;;;;3.55;40.17;100839.84;5024050;28;20051;-69
2022/03/06 01:44:06;;;;;;;41.15;19.60;;;;;;;3.52;40.10;100843.41;5024563;28;20548;-70
2022/03/06 01:46:33;;;;;;;47.30;24.50;;;;;;;3.47;40.34;100847.91;5025567;28;20053;-74
2022/03/06 01:49:00;;;;;;;37.97;22.83;;;;;;;3.43;40.58;100846.31;5023039;28;20645;-72
2022/03/06 01:51:27;;;;;;;43.22;21.92;;;;;;;3.41;40.73;100841.16;5026970;28;20054;-71
2022/03/06 01:53:54;;;;;;;49.58;23.40;;;;;;;3.39;40.75;100839.50;5026592;28;20724;-74
2022/03/06 01:56:21;;;;;;;47.67;26.08;;;;;;;3.34;40.90;100838.78;5026605;28;20053;-70
2022/03/06 01:58:50;;;;;;;47.40;22.77;;;;;;;3.32;40.78;100832.78;5027169;28;20540;-71
2022/03/06 02:01:17;;;;;;;46.38;21.40;;;;;;;3.34;40.70;100836.19;5027533;28;20496;-70
2022/03/06 02:03:44;;;;;;;43.65;20.98;;;;;;;3.36;40.68;100832.59;5027124;28;20052;-70
2022/03/06 02:06:11;;;;;;;40.35;16.55;;;;;;;3.40;40.67;100830.75;5029342;28;20052;-72
2022/03/06 02:08:39;;;;;;;25.30;15.18;;;;;;;3.42;40.40;100834.16;5029776;28;20124;-71
2022/03/06 02:11:08;;;;;;;40.78;22.35;;;;;;;3.40;40.26;100836.84;5030082;28;20056;-68
2022/03/06 02:13:35;;;;;;;43.67;25.00;;;;;;;3.30;40.40;100831.97;5031146;28;20057;-68
2022/03/06 02:16:04;;;;;;;39.40;23.50;;;;;;;3.10;40.52;100832.59;5031682;28;20128;-72
2022/03/06 02:18:31;;;;;;;45.92;25.95;;;;;;;2.99;41.05;100827.72;5028434;28;20072;-70
2022/03/06 02:20:58;;;;;;;38.22;22.05;;;;;;;2.93;41.10;100834.00;5030615;28;20060;-71
2022/03/06 02:23:26;;;;;;;38.17;21.20;;;;;;;2.90;41.15;100825.41;5030963;28;20547;-70
2022/03/06 02:25:53;;;;;;;25.23;15.05;;;;;;;2.90;40.62;100825.41;5030794;28;20049;-72
2022/03/06 02:28:20;;;;;;;27.77;16.08;;;;;;;2.89;39.97;100826.34;5030260;28;20054;-72
2022/03/06 02:30:47;;;;;;;28.10;17.73;;;;;;;2.82;39.62;100823.91;5030104;28;20540;-71
2022/03/06 02:33:14;;;;;;;25.63;16.95;;;;;;;2.80;39.44;100830.06;5031580;28;20137;-69
2022/03/06 02:35:42;;;;;;;27.45;16.58;;;;;;;2.87;39.37;100826.38;5033233;28;20056;-69
2022/03/06 02:38:09;;;;;;;28.80;16.75;;;;;;;2.94;39.30;100827.03;5034334;28;20051;-72
2022/03/06 02:40:39;;;;;;;18.52;12.55;;;;;;;2.97;39.02;100832.16;5031169;28;20046;-72
2022/03/06 02:43:06;;;;;;;20.92;11.27;;;;;;;3.02;39.04;100825.03;5031477;28;20099;-73
2022/03/06 02:45:34;;;;;;;18.88;11.48;;;;;;;3.05;38.95;100825.78;5031348;28;20049;-71
2022/03/06 02:48:01;;;;;;;20.30;12.38;;;;;;;3.08;38.83;100818.75;5028757;28;20069;-74
2022/03/06 02:50:29;;;;;;;23.80;13.15;;;;;;;3.14;38.77;100815.97;5033611;28;20069;-68
2022/03/06 02:52:58;;;;;;;22.15;12.77;;;;;;;3.15;39.09;100812.44;5030657;28;20049;-75
2022/03/06 02:55:25;;;;;;;23.48;14.50;;;;;;;3.17;39.09;100821.06;5033161;28;20041;-69
2022/03/06 02:57:54;;;;;;;24.27;15.82;;;;;;;3.10;39.20;100820.44;5033396;28;20126;-69
2022/03/06 03:00:23;;;;;;;28.55;15.68;;;;;;;3.04;39.25;100821.47;5035349;28;20601;-69
2022/03/06 03:02:50;;;;;;;27.80;16.13;;;;;;;3.04;39.72;100815.38;5039957;28;20052;-70
2022/03/06 03:05:18;;;;;;;23.08;13.52;;;;;;;3.06;39.62;100817.06;5039341;28;20049;-67
2022/03/06 03:07:48;;;;;;;21.40;13.90;;;;;;;3.08;39.64;100817.03;5038027;28;20678;-69
2022/03/06 03:10:17;;;;;;;26.75;16.08;;;;;;;3.06;39.71;100813.56;5037533;28;20347;-76
2022/03/06 03:12:44;;;;;;;21.42;12.70;;;;;;;3.03;39.44;100819.75;5035970;28;20041;-78
2022/03/06 03:15:14;;;;;;;28.25;16.75;;;;;;;2.99;38.88;100817.28;5031403;28;20140;-71
2022/03/06 03:17:41;;;;;;;22.83;14.43;;;;;;;3.00;38.46;100821.63;5032303;28;20064;-69
2022/03/06 03:20:09;;;;;;;22.35;14.43;;;;;;;3.01;38.56;100823.34;5029177;28;20052;-71
2022/03/06 03:22:36;;;;;;;26.58;16.20;;;;;;;2.98;38.88;100813.84;5029992;28;20049;-73
2022/03/06 03:25:04;;;;;;;26.98;14.10;;;;;;;3.00;38.83;100819.00;5030367;28;20051;-77
2022/03/06 03:27:31;;;;;;;24.42;15.57;;;;;;;3.01;38.81;100818.13;5030207;28;20145;-68
2022/03/06 03:29:58;;;;;;;29.83;14.88;;;;;;;3.02;39.20;100822.41;5030028;28;20049;-67
2022/03/06 03:32:27;;;;;;;21.77;15.13;;;;;;;3.03;39.50;100813.69;5030195;28;20452;-74
2022/03/06 03:34:54;;;;;;;24.30;13.70;;;;;;;3.05;39.35;100819.72;5030979;28;20064;-69
2022/03/06 03:37:21;;;;;;;24.00;14.45;;;;;;;3.08;39.21;100822.25;5030853;28;20053;-67
2022/03/06 03:39:48;;;;;;;22.75;12.60;;;;;;;3.15;39.52;100820.25;5032115;28;20129;-75
2022/03/06 03:42:15;;;;;;;23.83;14.43;;;;;;;3.16;39.40;100817.59;5031915;28;20060;-69
2022/03/06 03:44:42;;;;;;;18.85;12.25;;;;;;;3.16;39.46;100816.75;5030135;28;20132;-71
2022/03/06 03:47:09;;;;;;;22.88;10.85;;;;;;;3.17;39.37;100816.72;5031714;28;20045;-69
2022/03/06 03:49:37;;;;;;;24.45;11.98;;;;;;;3.23;39.54;100824.34;5027680;28;20046;-69
2022/03/06 03:52:05;;;;;;;26.98;15.48;;;;;;;3.24;39.64;100825.19;5029293;28;20140;-70
2022/03/06 03:54:32;;;;;;;22.25;13.23;;;;;;;3.17;39.80;100829.75;5029228;28;20119;-69
2022/03/06 03:56:59;;;;;;;20.48;13.07;;;;;;;3.15;39.72;100826.34;5028416;28;20179;-68
2022/03/06 03:59:26;;;;;;;20.27;13.13;;;;;;;3.13;39.50;100833.34;5030057;28;20128;-69
2022/03/06 04:01:53;;;;;;;33.55;14.40;;;;;;;3.11;39.85;100835.16;5031678;28;20412;-73
2022/03/06 04:04:20;;;;;;;27.30;17.20;;;;;;;3.04;39.92;100828.44;5029654;28;20467;-68
2022/03/06 04:06:48;;;;;;;24.92;16.35;;;;;;;2.96;39.93;100830.47;5029094;28;20053;-69
2022/03/06 04:09:15;;;;;;;22.65;14.25;;;;;;;2.91;40.06;100833.19;5029046;28;20064;-70
2022/03/06 04:11:42;;;;;;;22.58;13.88;;;;;;;2.87;40.15;100832.44;5027964;28;20482;-75
2022/03/06 04:14:09;;;;;;;21.10;14.32;;;;;;;2.73;40.50;100832.00;5028815;28;20059;-75
2022/03/06 04:16:36;;;;;;;22.33;12.23;;;;;;;2.71;40.45;100826.00;5028931;28;20081;-69
2022/03/06 04:19:04;;;;;;;11.65;7.80;;;;;;;2.78;39.32;100827.50;5026302;28;20049;-69
2022/03/06 04:21:31;;;;;;;15.52;7.85;;;;;;;2.88;39.20;100828.06;5027885;28;20079;-71
2022/03/06 04:23:59;;;;;;;20.58;11.90;;;;;;;2.92;39.00;100834.03;5028010;28;20051;-75
2022/03/06 04:26:26;;;;;;;24.75;11.13;;;;;;;2.91;38.64;100835.81;5026828;28;20050;-69
2022/03/06 04:28:53;;;;;;;18.08;11.25;;;;;;;2.88;38.78;100830.69;5025870;28;20045;-72
2022/03/06 04:31:20;;;;;;;26.38;13.65;;;;;;;2.87;39.08;100827.22;5027356;28;20477;-69
2022/03/06 04:33:47;;;;;;;25.35;13.15;;;;;;;2.90;38.92;100835.84;5027020;28;20144;-71
2022/03/06 04:36:14;;;;;;;27.55;13.98;;;;;;;2.93;39.25;100835.75;5026909;28;20053;-69
2022/03/06 04:38:42;;;;;;;21.83;13.70;;;;;;;2.90;39.45;100831.50;5027454;28;20045;-70
2022/03/06 04:41:12;;;;;;;24.67;14.40;;;;;;;2.84;39.16;100832.53;5026287;28;20045;-68
2022/03/06 04:43:39;;;;;;;18.67;11.73;;;;;;;2.81;38.66;100826.56;5026026;28;20125;-68
2022/03/06 04:46:06;;;;;;;17.88;9.88;;;;;;;2.84;38.49;100831.69;5026847;28;20521;-69
2022/03/06 04:48:33;;;;;;;19.75;11.10;;;;;;;2.81;38.55;100831.75;5025072;28;20645;-69
2022/03/06 04:51:00;;;;;;;17.15;11.05;;;;;;;2.82;38.71;100833.50;5026077;28;20050;-69
2022/03/06 04:53:28;;;;;;;25.85;15.30;;;;;;;2.82;38.92;100833.50;5025978;28;20133;-70
2022/03/06 04:55:55;;;;;;;24.10;12.68;;;;;;;2.80;39.27;100835.28;5026103;28;20076;-69
2022/03/06 04:58:23;;;;;;;21.98;12.88;;;;;;;2.85;39.31;100831.63;5026701;28;20077;-71
2022/03/06 05:00:50;;;;;;;19.45;11.80;;;;;;;2.93;39.31;100830.53;5027124;28;20129;-71
2022/03/06 05:03:17;;;;;;;21.35;12.07;;;;;;;2.95;39.14;100828.72;5026864;28;20133;-76
2022/03/06 05:05:44;;;;;;;25.52;13.75;;;;;;;3.01;39.32;100834.63;5028041;28;20598;-70
2022/03/06 05:08:11;;;;;;;26.83;14.38;;;;;;;3.01;39.26;100836.38;5027703;28;20507;-70
2022/03/06 05:10:38;;;;;;;30.42;14.85;;;;;;;3.00;39.50;100837.28;5027155;28;20132;-70
2022/03/06 05:13:05;;;;;;;31.45;16.45;;;;;;;3.00;39.49;100834.66;5027893;28;20160;-74
2022/03/06 05:15:34;;;;;;;32.28;17.58;;;;;;;2.94;39.82;100832.25;5027376;28;20049;-79
2022/03/06 05:18:02;;;;;;;19.63;14.20;;;;;;;2.85;39.22;100829.03;5027659;28;20046;-70
2022/03/06 05:20:29;;;;;;;17.65;12.25;;;;;;;2.86;39.01;100825.53;5026004;28;20057;-81
2022/03/06 05:22:56;;;;;;;15.60;10.63;;;;;;;2.87;38.94;100822.00;5026725;28;20127;-70
2022/03/06 05:25:23;;;;;;;17.42;11.27;;;;;;;2.85;38.96;100826.41;5027386;28;20128;-77
2022/03/06 05:27:50;;;;;;;14.77;10.40;;;;;;;2.85;38.59;100828.19;5027905;28;20779;-70
2022/03/06 05:30:17;;;;;;;22.88;13.10;;;;;;;2.80;38.46;100830.91;5027017;28;20565;-71
2022/03/06 05:32:45;;;;;;;10.77;7.53;;;;;;;2.85;38.00;100829.03;5027829;28;20049;-70
2022/03/06 05:35:12;;;;;;;22.45;10.98;;;;;;;2.90;38.23;100828.03;5028523;28;20069;-79
2022/03/06 05:37:39;;;;;;;26.98;15.38;;;;;;;2.93;38.43;100834.00;5027142;28;20589;-77
2022/03/06 05:40:09;;;;;;;29.77;15.75;;;;;;;2.96;38.71;100828.69;5026758;28;20088;-76
2022/03/06 05:42:36;;;;;;;24.17;14.00;;;;;;;3.01;38.60;100832.00;5028436;28;20239;-71
2022/03/06 05:45:03;;;;;;;29.00;14.80;;;;;;;3.05;38.91;100833.63;5027083;28;20132;-72
2022/03/06 05:47:30;;;;;;;34.55;14.93;;;;;;;3.07;38.72;100833.56;5026817;28;20055;-69
2022/03/06 05:49:59;;;;;;;13.20;8.07;;;;;;;3.07;38.78;100825.75;5026905;28;20156;-75
2022/03/06 05:52:26;;;;;;;12.45;8.20;;;;;;;3.05;38.07;100825.78;5028617;28;20107;-69
2022/03/06 05:54:52;;;;;;;10.40;6.57;;;;;;;3.06;37.57;100826.63;5027567;28;20052;-71
2022/03/06 05:57:19;;;;;;;11.38;7.32;;;;;;;3.08;37.39;100827.47;5028379;28;20049;-71
2022/03/06 05:59:46;;;;;;;13.48;8.25;;;;;;;3.02;37.00;100823.25;5027721;28;20111;-79
2022/03/06 06:02:13;;;;;;;10.35;7.40;;;;;;;3.05;36.94;100831.00;5027575;28;20133;-69
2022/03/06 06:04:41;;;;;;;13.77;8.77;;;;;;;3.05;36.75;100831.00;5027349;28;20052;-79
2022/03/06 06:07:10;;;;;;;12.48;8.07;;;;;;;3.08;37.20;100831.81;5028074;28;20099;-71
2022/03/06 06:09:37;;;;;;;11.57;8.00;;;;;;;3.09;36.68;100825.69;5026658;28;20795;-68
2022/03/06 06:12:06;;;;;;;9.38;7.80;;;;;;;3.03;36.20;100826.75;5027555;28;20069;-69
2022/03/06 06:14:33;;;;;;;9.13;7.20;;;;;;;3.04;35.93;100831.94;5026530;28;20111;-73
2022/03/06 06:17:00;;;;;;;11.45;6.78;;;;;;;3.03;35.70;100832.81;5027201;28;20041;-77
2022/03/06 06:19:27;;;;;;;9.20;5.70;;;;;;;3.11;35.86;100834.31;5024238;28;20077;-69
2022/03/06 06:21:54;;;;;;;15.32;6.90;;;;;;;3.18;35.83;100831.47;5027682;28;20128;-70
2022/03/06 06:24:22;;;;;;;9.68;6.03;;;;;;;3.30;35.88;100829.38;5026505;28;20575;-80
2022/03/06 06:26:53;;;;;;;10.52;6.65;;;;;;;3.25;35.20;100827.75;5029824;28;20124;-69
2022/03/06 06:29:20;;;;;;;11.85;6.03;;;;;;;3.16;34.51;100824.59;5030067;28;20049;-70
2022/03/06 06:31:47;;;;;;;11.00;7.57;;;;;;;3.16;34.54;100821.97;5029534;28;20045;-75
2022/03/06 06:34:16;;;;;;;10.40;6.40;;;;;;;3.28;34.54;100826.81;5027351;28;20077;-68
2022/03/06 06:36:43;;;;;;;12.05;6.65;;;;;;;3.36;34.42;100819.56;5027715;28;20494;-69
2022/03/06 06:39:11;;;;;;;9.63;6.03;;;;;;;3.30;33.91;100819.78;5028645;28;20089;-67
2022/03/06 06:41:39;;;;;;;16.25;6.40;;;;;;;3.42;33.99;100821.09;5029393;28;20776;-68
2022/03/06 06:44:07;;;;;;;6.05;3.95;;;;;;;3.61;34.39;100831.78;5030240;28;20049;-75
2022/03/06 06:46:35;;;;;;;6.30;3.80;;;;;;;3.78;34.34;100826.84;5029537;28;20046;-71
2022/03/06 06:49:03;;;;;;;3.78;2.90;;;;;;;3.95;34.41;100825.38;5022601;28;20106;-72
2022/03/06 06:51:30;;;;;;;8.80;3.85;;;;;;;4.04;34.46;100818.97;5022427;28;20042;-73
2022/03/06 06:53:58;;;;;;;6.03;3.38;;;;;;;4.11;34.61;100812.63;5029719;28;20055;-69
2022/03/06 06:56:25;;;;;;;7.25;4.60;;;;;;;4.12;34.06;100824.75;5026492;28;20044;-73
2022/03/06 06:58:53;;;;;;;8.93;5.90;;;;;;;4.08;34.15;100812.72;5025821;28;20045;-69
2022/03/06 07:01:20;;;;;;;8.38;6.03;;;;;;;4.07;33.61;100821.47;5022579;28;20083;-72
2022/03/06 07:03:47;;;;;;;9.18;6.30;;;;;;;3.99;33.44;100819.13;5014358;28;20129;-69
2022/03/06 07:06:15;;;;;;;10.23;5.82;;;;;;;4.02;33.26;100817.25;5014838;28;20108;-71
2022/03/06 07:08:42;;;;;;;9.02;5.85;;;;;;;3.95;32.92;100814.94;5025494;28;20049;-67
2022/03/06 07:11:09;;;;;;;8.48;5.80;;;;;;;3.92;32.84;100815.03;5017220;28;20521;-68
2022/03/06 07:13:39;;;;;;;8.60;4.97;;;;;;;4.08;33.27;100808.34;5011266;28;20045;-66
2022/03/06 07:16:08;;;;;;;7.70;5.15;;;;;;;4.25;33.15;100817.31;5023298;28;20589;-68
2022/03/06 07:18:35;;;;;;;14.98;9.25;;;;;;;4.10;32.64;100818.75;5022741;28;20184;-68
2022/03/06 07:21:02;;;;;;;16.40;10.13;;;;;;;3.95;32.35;100823.63;5018198;28;20124;-68
2022/03/06 07:23:30;;;;;;;6.70;4.70;;;;;;;3.79;32.25;100825.06;5009823;28;20049;-72
2022/03/06 07:25:57;;;;;;;7.15;5.18;;;;;;;3.74;32.47;100824.38;5008979;28;20438;-70
2022/03/06 07:28:25;;;;;;;6.15;4.93;;;;;;;3.78;32.38;100823.34;5015101;28;20068;-69
2022/03/06 07:30:52;;;;;;;5.80;4.80;;;;;;;3.80;32.05;100824.19;5012610;28;20049;-68
2022/03/06 07:33:20;;;;;;;11.85;8.50;;;;;;;3.91;32.14;100821.19;5013655;28;20045;-68
2022/03/06 07:35:48;;;;;;;5.13;4.32;;;;;;;3.96;32.09;100825.34;5013256;28;20137;-70
2022/03/06 07:38:15;;;;;;;10.85;7.55;;;;;;;4.08;32.04;100823.19;5012159;28;20052;-67
2022/03/06 07:40:44;;;;;;;10.90;4.25;;;;;;;4.14;32.06;100823.81;5014069;28;20055;-68
2022/03/06 07:43:11;;;;;;;5.72;3.78;;;;;;;4.24;32.00;100819.09;5021198;28;20096;-67
2022/03/06 07:45:38;;;;;;;5.90;3.58;;;;;;;4.19;31.76;100821.84;5011347;28;20673;-67
2022/03/06 07:48:06;;;;;;;8.55;4.22;;;;;;;4.29;32.07;100822.38;5013010;28;20161;-68
2022/03/06 07:50:35;;;;;;;4.93;3.30;;;;;;;4.28;31.84;100825.91;5010200;28;20046;-67
2022/03/06 07:53:02;;;;;;;7.93;3.72;;;;;;;4.44;31.63;100826.19;5014486;28;20133;-70
2022/03/06 07:55:29;;;;;;;5.20;2.97;;;;;;;4.70;31.67;100821.72;5010083;28;20055;-69
2022/03/06 07:57:56;;;;;;;4.53;2.45;;;;;;;4.92;31.85;100826.97;5021418;28;20048;-69
2022/03/06 08:00:23;;;;;;;5.43;3.30;;;;;;;5.03;31.73;100824.78;5023429;28;20075;-70
2022/03/06 08:02:50;;;;;;;4.45;3.55;;;;;;;5.13;31.91;100826.09;5023133;28;20049;-68
2022/03/06 08:05:17;;;;;;;6.95;5.05;;;;;;;5.33;31.60;100822.66;5024217;28;20052;-68
2022/03/06 08:07:46;;;;;;;8.73;5.40;;;;;;;5.36;31.37;100817.28;5022655;28;20046;-68
2022/03/06 08:10:13;;;;;;;7.93;4.88;;;;;;;5.23;31.22;100815.25;5021453;28;20041;-67
2022/03/06 08:12:40;;;;;;;10.00;5.15;;;;;;;5.24;31.29;100816.94;5019779;28;20603;-68
2022/03/06 08:15:09;;;;;;;5.28;3.67;;;;;;;5.31;31.23;100821.00;5023271;28;20754;-70
2022/03/06 08:17:36;;;;;;;8.13;4.15;;;;;;;5.54;31.28;100820.91;5019357;28;20049;-68
2022/03/06 08:20:03;;;;;;;8.30;5.68;;;;;;;5.71;31.17;100821.97;5013066;28;20152;-70
2022/03/06 08:22:31;;;;;;;8.52;5.65;;;;;;;5.66;30.56;100813.44;5018432;28;20053;-70
2022/03/06 08:25:03;;;;;;;6.95;4.93;;;;;;;5.48;30.42;100817.69;5012428;28;20661;-69
2022/03/06 08:27:30;;;;;;;6.80;4.97;;;;;;;5.48;30.63;100821.16;5012000;28;20045;-71
2022/03/06 08:29:57;;;;;;;7.45;5.80;;;;;;;5.41;30.64;100819.72;5020147;28;20042;-70
2022/03/06 08:32:24;;;;;;;6.28;4.97;;;;;;;5.26;30.41;100815.97;5021962;28;20037;-75
2022/03/06 08:34:51;;;;;;;10.70;5.90;;;;;;;5.09;30.23;100829.75;5024544;28;20138;-72
2022/03/06 08:37:19;;;;;;;7.97;3.90;;;;;;;5.03;30.48;100823.94;5023359;28;20049;-70
2022/03/06 08:39:46;;;;;;;12.98;5.18;;;;;;;5.39;30.66;100821.56;5021506;28;20045;-70
2022/03/06 08:42:15;;;;;;;8.77;4.90;;;;;;;5.39;30.13;100820.72;5021683;28;20056;-69
2022/03/06 08:44:42;;;;;;;7.90;5.40;;;;;;;5.36;30.31;100822.53;5017837;28;20132;-71
2022/03/06 08:47:11;;;;;;;11.88;7.82;;;;;;;5.11;29.94;100816.59;5026572;28;20494;-68
2022/03/06 08:49:38;;;;;;;6.40;4.13;;;;;;;5.10;30.27;100817.53;5021326;28;20045;-75
2022/03/06 08:52:07;;;;;;;9.70;5.82;;;;;;;5.07;30.12;100820.25;5014293;28;20111;-69
2022/03/06 08:54:37;;;;;;;8.35;5.20;;;;;;;4.92;30.26;100813.88;5015388;28;20178;-70
2022/03/06 08:57:04;;;;;;;6.05;4.97;;;;;;;4.77;30.15;100818.81;4968430;28;20557;-70
2022/03/06 08:59:35;;;;;;;6.97;4.65;;;;;;;4.88;30.25;100820.13;5019455;28;20117;-72
2022/03/06 09:02:02;;;;;;;19.98;11.32;;;;;;;4.89;29.99;100817.47;5021883;28;20041;-72
2022/03/06 09:04:38;;;;;;;10.32;6.32;;;;;;;5.04;30.31;100813.41;5021317;28;20124;-69
2022/03/06 09:07:05;;;;;;;8.40;4.70;;;;;;;5.27;30.29;100809.81;5018030;28;20084;-71
2022/03/06 09:09:32;;;;;;;12.57;8.85;;;;;;;5.42;30.21;100810.97;5027926;28;20140;-70
2022/03/06 09:11:59;;;;;;;7.57;5.35;;;;;;;5.20;29.60;100812.75;5027814;28;20038;-70
2022/03/06 09:14:27;;;;;;;6.45;4.70;;;;;;;4.97;30.22;100814.56;5024881;28;20104;-72
2022/03/06 09:16:58;;;;;;;6.38;4.47;;;;;;;4.94;30.17;100819.91;5028045;28;20661;-69
2022/03/06 09:19:25;;;;;;;6.15;5.13;;;;;;;5.24;30.13;100824.78;5026582;28;20509;-73
2022/03/06 09:21:53;;;;;;;9.35;5.65;;;;;;;5.32;29.76;100814.88;5024917;28;20050;-81
2022/03/06 09:24:21;;;;;;;7.45;5.32;;;;;;;5.44;29.47;100816.97;5005331;28;20050;-72
2022/03/06 09:26:48;;;;;;;8.55;4.50;;;;;;;5.33;29.50;100817.44;5004567;28;20100;-79
2022/03/06 09:29:16;;;;;;;7.18;5.80;;;;;;;5.39;29.88;100810.22;5022062;28;20055;-76
2022/03/06 09:31:43;;;;;;;8.68;6.78;;;;;;;5.46;29.71;100807.28;5011710;28;20132;-76
2022/03/06 09:34:12;;;;;;;10.40;6.07;;;;;;;5.58;29.66;100803.28;5011490;28;20133;-80
2022/03/06 09:36:39;;;;;;;10.00;5.65;;;;;;;5.98;29.45;100804.22;5026530;28;20057;-82
2022/03/06 09:39:07;;;;;;;7.22;5.25;;;;;;;5.83;29.15;100799.59;5020769;28;20055;-74
2022/03/06 09:41:38;;;;;;;9.32;5.55;;;;;;;5.51;29.37;100801.81;5018120;28;20609;-76
2022/03/06 09:44:08;;;;;;;7.90;5.30;;;;;;;5.51;29.22;100805.31;5020123;28;20071;-76
2022/03/06 09:46:39;;;;;;;8.63;4.50;;;;;;;5.58;29.50;100800.66;5018635;28;20139;-74
2022/03/06 09:49:07;;;;;;;6.47;4.05;;;;;;;5.46;29.46;100804.66;5025841;28;20182;-79
2022/03/06 09:51:38;;;;;;;7.78;6.30;;;;;;;5.44;29.38;100798.66;5019113;28;20049;-76
2022/03/06 09:54:05;;;;;;;13.07;7.00;;;;;;;5.48;29.63;100797.59;5020380;28;20125;-81
2022/03/06 09:56:33;;;;;;;9.85;6.10;;;;;;;5.43;29.42;100796.09;5019688;28;20099;-77
2022/03/06 09:59:02;;;;;;;10.98;7.55;;;;;;;5.49;29.66;100796.69;5019854;28;20050;-78
2022/03/06 10:01:30;;;;;;;11.07;7.15;;;;;;;5.44;29.47;100793.41;5023103;28;20042;-81
2022/03/06 10:03:57;;;;;;;5.88;4.35;;;;;;;5.92;29.68;100789.56;5040902;28;20103;-78
2022/03/06 10:06:25;;;;;;;9.00;4.93;;;;;;;6.58;29.16;100788.34;5002669;28;20081;-82
2022/03/06 10:09:05;;;;;;;8.73;6.43;;;;;;;6.32;28.38;100786.94;5004250;28;20096;-80
2022/03/06 10:11:32;;;;;;;9.63;6.15;;;;;;;6.58;28.89;100787.50;4971795;28;20053;-76
2022/03/06 10:14:03;;;;;;;11.90;8.60;;;;;;;6.23;28.31;100785.59;5002403;28;20074;-76
2022/03/06 10:16:30;;;;;;;11.43;7.20;;;;;;;5.79;28.61;100788.41;5001844;28;20056;-77
2022/03/06 10:18:57;;;;;;;14.80;11.88;;;;;;;5.55;29.06;100783.31;5006178;28;20559;-73
2022/03/06 10:21:25;;;;;;;10.80;8.57;;;;;;;5.33;29.40;100788.63;5020897;28;20049;-75
2022/03/06 10:23:55;;;;;;;6.35;4.63;;;;;;;5.59;29.49;100791.03;5013961;28;20576;-75
2022/03/06 10:26:29;;;;;;;7.32;6.18;;;;;;;5.55;29.22;100787.72;5009351;28;20042;-77
2022/03/06 10:28:58;;;;;;;9.30;6.47;;;;;;;5.58;29.38;100786.72;5014813;28;20649;-76
2022/03/06 10:31:27;;;;;;;10.00;6.38;;;;;;;5.42;29.29;100783.88;5010171;28;20129;-77
2022/03/06 10:34:05;;;;;;;6.22;4.95;;;;;;;5.42;29.48;100784.75;5010506;28;20134;-75
2022/03/06 10:36:39;;;;;;;9.02;4.30;;;;;;;5.69;29.36;100773.97;5018191;28;20129;-77
2022/03/06 10:39:12;;;;;;;6.70;4.07;;;;;;;5.82;29.37;100774.31;5032858;28;20084;-74
2022/03/06 10:41:43;;;;;;;5.57;3.90;;;;;;;5.79;29.43;100766.59;5030657;28;20045;-77
2022/03/06 10:44:12;;;;;;;8.30;4.32;;;;;;;5.79;29.76;100769.19;5029804;28;20041;-79
2022/03/06 10:46:44;;;;;;;14.82;5.25;;;;;;;5.74;29.99;100772.00;4991684;28;20230;-76
2022/03/06 10:49:17;;;;;;;9.45;5.97;;;;;;;5.47;29.42;100767.03;5021123;28;20072;-80
2022/03/06 10:51:50;;;;;;;8.98;5.80;;;;;;;5.47;29.67;100758.34;5020367;28;20094;-76
2022/03/06 10:54:18;;;;;;;6.75;4.40;;;;;;;5.60;29.77;100763.91;5015453;28;20100;-74
2022/03/06 10:56:50;;;;;;;12.05;8.50;;;;;;;5.57;29.32;100758.81;5021131;28;20050;-81
2022/03/06 10:59:20;;;;;;;11.45;7.35;;;;;;;5.30;29.42;100754.69;5017671;28;20046;-77
2022/03/06 11:01:48;;;;;;;12.07;6.70;;;;;;;5.48;29.50;100753.03;5019143;28;20129;-77
2022/03/06 11:04:17;;;;;;;9.93;5.97;;;;;;;5.96;29.20;100752.75;5025495;28;20644;-75
2022/03/06 11:06:48;;;;;;;11.00;6.25;;;;;;;6.39;28.92;100750.75;5018786;28;20529;-73
2022/03/06 11:09:17;;;;;;;7.90;5.88;;;;;;;6.83;28.63;100746.00;5018504;28;20045;-77
2022/03/06 11:11:47;;;;;;;9.70;6.45;;;;;;;7.14;28.45;100741.00;5015035;28;20053;-75
2022/03/06 11:14:14;;;;;;;10.73;7.30;;;;;;;7.05;28.24;100745.78;5011964;28;20074;-73
2022/03/06 11:16:43;;;;;;;12.02;8.57;;;;;;;6.80;27.83;100743.53;5012784;28;20095;-75
2022/03/06 11:19:11;;;;;;;10.00;7.78;;;;;;;6.25;28.17;100741.78;5013729;28;20122;-72
2022/03/06 11:21:41;;;;;;;10.75;8.02;;;;;;;6.20;28.68;100732.41;5009734;28;20038;-76
2022/03/06 11:24:13;;;;;;;10.05;7.57;;;;;;;5.87;28.53;100727.75;5005868;28;20132;-78
2022/03/06 11:27:08;;;;;;;11.23;9.20;;;;;;;5.60;28.83;100725.47;5005763;28;20072;-74